createdAt,value
2016-07-10T00:01:18.195Z,16.3
2016-07-10T00:04:32.529Z,16.3
2016-07-10T00:07:46.666Z,16.3
2016-07-10T00:11:00.916Z,16.3
2016-07-10T00:14:15.624Z,16.3
2016-07-10T00:17:28.396Z,16.3
2016-07-10T00:20:47.746Z,16.3
2016-07-10T00:23:56.466Z,16.3
2016-07-10T00:27:06.624Z,16.3
2016-07-10T00:30:20.998Z,16.3
2016-07-10T00:33:35.197Z,16.3
2016-07-10T00:36:49.499Z,16.3
2016-07-10T00:40:03.916Z,16.3
2016-07-10T00:43:18.226Z,16.4
2016-07-10T00:46:32.349Z,16.4
2016-07-10T00:49:46.718Z,16.4
2016-07-10T00:53:01.106Z,16.4
2016-07-10T00:56:15.697Z,16.4
2016-07-10T00:59:28.398Z,16.4
2016-07-10T01:02:47.763Z,16.4
2016-07-10T01:05:52.449Z,16.4
2016-07-10T01:09:06.761Z,16.4
2016-07-10T01:12:20.962Z,16.4
2016-07-10T01:15:35.455Z,16.4
2016-07-10T01:18:49.802Z,16.4
2016-07-10T01:22:03.944Z,16.4
2016-07-10T01:25:15.631Z,16.4
2016-07-10T01:28:30.096Z,16.4
2016-07-10T01:31:47.309Z,16.4
2016-07-10T01:34:52.132Z,16.4
2016-07-10T01:38:06.602Z,16.4
2016-07-10T01:41:21.049Z,16.4
2016-07-10T01:44:35.479Z,16.4
2016-07-10T01:47:49.696Z,16.4
2016-07-10T01:51:04.256Z,16.4
2016-07-10T01:54:18.691Z,16.3
2016-07-10T01:57:33.273Z,16.3
2016-07-10T02:00:47.814Z,16.3
2016-07-10T02:04:02.255Z,16.3
2016-07-10T02:07:16.719Z,16.3
2016-07-10T02:10:31.069Z,16.3
2016-07-10T02:13:50.563Z,16.3
2016-07-10T02:16:55.338Z,16.3
2016-07-10T02:20:09.725Z,16.3
2016-07-10T02:23:24.358Z,16.2
2016-07-10T02:26:43.966Z,16.2
2016-07-10T02:29:48.725Z,16.2
2016-07-10T02:33:01.152Z,16.2
2016-07-10T02:36:17.666Z,16.2
2016-07-10T02:39:32.290Z,16.2
2016-07-10T02:42:46.898Z,16.2
2016-07-10T02:46:01.274Z,16.2
2016-07-10T02:49:15.462Z,16.2
2016-07-10T02:52:29.965Z,16.2
2016-07-10T02:55:49.288Z,16.3
2016-07-10T02:58:54.123Z,16.3
2016-07-10T03:02:08.629Z,16.3
2016-07-10T03:05:23.190Z,16.3
2016-07-10T03:08:42.677Z,16.3
2016-07-10T03:11:47.447Z,16.3
2016-07-10T03:14:59.552Z,16.3
2016-07-10T03:18:16.221Z,16.3
2016-07-10T03:21:30.873Z,16.3
2016-07-10T03:24:50.343Z,16.3
2016-07-10T03:27:55.126Z,16.3
2016-07-10T03:31:09.428Z,16.3
2016-07-10T03:34:23.904Z,16.3
2016-07-10T03:37:43.329Z,16.3
2016-07-10T03:40:48.053Z,16.3
2016-07-10T03:44:02.511Z,16.3
2016-07-10T03:47:16.777Z,16.4
2016-07-10T03:50:31.179Z,16.4
2016-07-10T03:53:50.693Z,16.4
2016-07-10T03:56:55.465Z,16.5
2016-07-10T04:00:10.081Z,16.5
2016-07-10T04:03:24.814Z,16.5
2016-07-10T04:06:43.988Z,16.5
2016-07-10T04:09:48.672Z,16.5
2016-07-10T04:13:03.057Z,16.6
2016-07-10T04:16:15.278Z,16.6
2016-07-10T04:19:29.787Z,16.6
2016-07-10T04:22:43.592Z,16.6
2016-07-10T04:26:00.274Z,16.6
2016-07-10T04:29:14.709Z,16.6
2016-07-10T04:32:29.147Z,16.7
2016-07-10T04:35:48.496Z,16.7
2016-07-10T04:38:53.276Z,16.8
2016-07-10T04:42:07.243Z,16.8
2016-07-10T04:45:19.697Z,16.8
2016-07-10T04:48:40.942Z,16.8
2016-07-10T04:51:50.759Z,16.8
2016-07-10T04:54:55.525Z,16.8
2016-07-10T04:58:09.704Z,16.8
2016-07-10T05:01:22.357Z,16.9
2016-07-10T05:04:43.288Z,16.8
2016-07-10T05:07:48.015Z,16.9
2016-07-10T05:11:02.612Z,17.1
2016-07-10T05:14:17.228Z,17.3
2016-07-10T05:17:31.619Z,17.5
2016-07-10T05:20:46.395Z,17.8
2016-07-10T05:24:01.030Z,18
2016-07-10T05:27:15.620Z,18.2
2016-07-10T05:30:30.384Z,18.4
2016-07-10T05:33:50.037Z,18.7
2016-07-10T05:36:55.016Z,18.9
2016-07-10T05:40:09.789Z,19.2
2016-07-10T05:43:24.532Z,19.4
2016-07-10T05:46:44.367Z,19.7
2016-07-10T05:49:49.429Z,19.9
2016-07-10T05:53:04.010Z,20
2016-07-10T05:56:18.833Z,20.2
2016-07-10T05:59:33.664Z,20.5
2016-07-10T06:02:46.468Z,20.8
2016-07-10T06:06:03.288Z,21
2016-07-10T06:09:18.047Z,21.2
2016-07-10T06:12:32.971Z,21.4
2016-07-10T06:15:47.891Z,21.7
2016-07-10T06:19:02.936Z,21.9
2016-07-10T06:22:17.886Z,22.2
2016-07-10T06:25:32.778Z,22.5
2016-07-10T06:28:47.630Z,22.9
2016-07-10T06:32:02.710Z,23.2
2016-07-10T06:35:18.003Z,23.7
2016-07-10T06:38:33.512Z,24
2016-07-10T06:41:48.924Z,24.5
2016-07-10T06:45:04.576Z,24.9
2016-07-10T06:48:20.343Z,25.4
2016-07-10T06:51:33.762Z,26.1
2016-07-10T06:54:51.484Z,26.4
2016-07-10T06:58:07.110Z,27
2016-07-10T07:01:22.702Z,27.7
2016-07-10T07:04:43.468Z,28.1
2016-07-10T07:07:47.591Z,28.7
2016-07-10T07:11:05.090Z,29.1
2016-07-10T07:14:20.794Z,29.2
2016-07-10T07:17:41.455Z,29.2
2016-07-10T07:20:47.500Z,29.4
2016-07-10T07:24:03.342Z,29.9
2016-07-10T07:27:19.029Z,30.2
2016-07-10T07:30:34.867Z,29.9
2016-07-10T07:33:48.737Z,30
2016-07-10T07:37:06.330Z,30.2
2016-07-10T07:40:21.984Z,30.3
2016-07-10T07:43:42.395Z,30.3
2016-07-10T07:46:46.622Z,30.3
2016-07-10T07:50:04.277Z,30.6
2016-07-10T07:53:20.052Z,30.8
2016-07-10T07:56:35.832Z,30.7
2016-07-10T07:59:51.807Z,30.6
2016-07-10T08:03:07.687Z,30.7
2016-07-10T08:06:23.634Z,30.7
2016-07-10T08:09:44.417Z,30.9
2016-07-10T08:12:50.975Z,31.3
2016-07-10T08:16:06.990Z,31.6
2016-07-10T08:19:23.302Z,31.9
2016-07-10T08:22:44.378Z,32.6
2016-07-10T08:25:51.007Z,32.4
2016-07-10T08:29:06.985Z,32.3
2016-07-10T08:32:22.980Z,32.1
2016-07-10T08:35:43.722Z,31.8
2016-07-10T08:38:50.019Z,31.6
2016-07-10T08:42:05.787Z,31.1
2016-07-10T08:45:19.675Z,31.3
2016-07-10T08:48:42.730Z,32
2016-07-10T08:51:49.300Z,32.2
2016-07-10T08:55:05.460Z,32.5
2016-07-10T08:58:19.561Z,32.7
2016-07-10T09:01:42.898Z,33.1
2016-07-10T09:04:49.615Z,33.1
2016-07-10T09:08:05.448Z,32.8
2016-07-10T09:11:21.179Z,32
2016-07-10T09:14:41.544Z,30.8
2016-07-10T09:17:47.194Z,29.7
2016-07-10T09:21:02.362Z,29.1
2016-07-10T09:24:17.870Z,28.8
2016-07-10T09:27:33.498Z,28.7
2016-07-10T09:30:49.330Z,28.6
2016-07-10T09:34:04.875Z,28.3
2016-07-10T09:37:20.734Z,28.1
2016-07-10T09:40:41.217Z,28.1
2016-07-10T09:43:47.194Z,27.8
2016-07-10T09:47:03.077Z,27.9
2016-07-10T09:50:17.915Z,28.4
2016-07-10T09:53:33.812Z,28.8
2016-07-10T09:56:49.535Z,28.7
2016-07-10T10:00:05.297Z,28.4
2016-07-10T10:03:21.133Z,28.3
2016-07-10T10:06:41.807Z,28.1
2016-07-10T10:09:47.942Z,28.1
2016-07-10T10:13:03.540Z,28.1
2016-07-10T10:16:19.228Z,28.1
2016-07-10T10:19:34.836Z,28
2016-07-10T10:22:50.090Z,27.7
2016-07-10T10:26:03.358Z,27.5
2016-07-10T10:29:20.552Z,27.1
2016-07-10T10:32:35.747Z,26.8
2016-07-10T10:35:51.236Z,26.6
2016-07-10T10:39:06.813Z,26.6
2016-07-10T10:42:22.056Z,26.7
2016-07-10T10:45:42.404Z,26.6
2016-07-10T10:48:48.194Z,26.7
2016-07-10T10:52:03.408Z,26.8
2016-07-10T10:55:18.981Z,26.8
2016-07-10T10:58:34.396Z,26.8
2016-07-10T11:01:49.306Z,26.6
2016-07-10T11:05:04.706Z,26.5
2016-07-10T11:08:20.063Z,26.5
2016-07-10T11:11:35.349Z,26.3
2016-07-10T11:14:50.524Z,26.2
2016-07-10T11:18:05.916Z,26.2
2016-07-10T11:21:21.129Z,26.1
2016-07-10T11:24:41.476Z,26
2016-07-10T11:27:47.081Z,25.9
2016-07-10T11:31:02.417Z,25.8
2016-07-10T11:34:17.702Z,25.7
2016-07-10T11:37:30.287Z,25.7
2016-07-10T11:40:50.619Z,25.6
2016-07-10T11:43:56.284Z,25.6
2016-07-10T11:47:11.664Z,25.6
2016-07-10T11:50:26.889Z,25.5
2016-07-10T11:53:47.279Z,25.4
2016-07-10T11:56:51.078Z,25.4
2016-07-10T12:00:08.434Z,25.4
2016-07-10T12:03:23.827Z,25.4
2016-07-10T12:06:44.168Z,25.4
2016-07-10T12:09:49.908Z,25.3
2016-07-10T12:13:05.198Z,25.2
2016-07-10T12:16:20.321Z,25.2
2016-07-10T12:19:35.740Z,25.1
2016-07-10T12:22:51.183Z,25.1
2016-07-10T12:26:06.472Z,25.2
2016-07-10T12:29:21.974Z,25.2
2016-07-10T12:32:42.456Z,25.1
2016-07-10T12:35:48.248Z,25.1
2016-07-10T12:39:03.681Z,25.1
2016-07-10T12:42:19.070Z,25
2016-07-10T12:45:34.324Z,25
2016-07-10T12:48:49.310Z,25
2016-07-10T12:52:04.480Z,25
2016-07-10T12:55:19.753Z,25
2016-07-10T12:58:35.065Z,25
2016-07-10T13:01:50.405Z,25
2016-07-10T13:05:05.791Z,25
2016-07-10T13:08:21.064Z,25.1
2016-07-10T13:11:41.340Z,25.1
2016-07-10T13:14:47.010Z,25.2
2016-07-10T13:18:02.294Z,25.2
2016-07-10T13:21:17.544Z,25.3
2016-07-10T13:24:32.797Z,25.3
2016-07-10T13:27:47.971Z,25.3
2016-07-10T13:31:03.491Z,25.3
2016-07-10T13:34:18.676Z,25.4
2016-07-10T13:37:34.261Z,25.5
2016-07-10T13:40:49.335Z,25.6
2016-07-10T13:44:04.848Z,25.7
2016-07-10T13:47:20.263Z,25.7
2016-07-10T13:50:35.519Z,25.7
2016-07-10T13:53:50.982Z,25.8
2016-07-10T13:57:02.809Z,25.8
2016-07-10T14:00:17.887Z,25.9
2016-07-10T14:03:33.315Z,25.9
2016-07-10T14:06:48.879Z,26
2016-07-10T14:10:04.256Z,26
2016-07-10T14:13:19.809Z,26.1
2016-07-10T14:16:35.302Z,26.1
2016-07-10T14:19:50.508Z,26
2016-07-10T14:23:05.732Z,26
2016-07-10T14:26:20.914Z,26
2016-07-10T14:29:41.347Z,26
2016-07-10T14:32:47.317Z,26.1
2016-07-10T14:36:02.706Z,26.1
2016-07-10T14:39:18.101Z,26.1
2016-07-10T14:42:32.336Z,26.1
2016-07-10T14:45:47.645Z,26.1
2016-07-10T14:49:03.082Z,26.1
2016-07-10T14:52:18.474Z,26
2016-07-10T14:55:33.858Z,26
2016-07-10T14:58:49.426Z,26
2016-07-10T15:02:04.930Z,26
2016-07-10T15:05:17.994Z,25.9
2016-07-10T15:08:35.508Z,25.9
2016-07-10T15:11:50.465Z,25.8
2016-07-10T15:15:05.959Z,25.8
2016-07-10T15:18:25.403Z,25.8
2016-07-10T15:21:41.364Z,25.8
2016-07-10T15:24:47.036Z,25.8
2016-07-10T15:28:02.456Z,25.8
2016-07-10T15:31:18.054Z,25.8
2016-07-10T15:34:33.245Z,25.8
2016-07-10T15:37:50.230Z,25.9
2016-07-10T15:40:56.078Z,25.9
2016-07-10T15:44:11.452Z,26
2016-07-10T15:47:26.923Z,26
2016-07-10T15:50:47.324Z,26
2016-07-10T15:53:53.080Z,26
2016-07-10T15:57:08.592Z,26
2016-07-10T16:00:23.825Z,25.9
2016-07-10T16:03:43.811Z,25.9
2016-07-10T16:06:49.486Z,25.9
2016-07-10T16:10:04.585Z,25.9
2016-07-10T16:13:19.458Z,25.9
2016-07-10T16:16:34.946Z,25.9
2016-07-10T16:19:50.304Z,25.8
2016-07-10T16:23:05.573Z,25.7
2016-07-10T16:26:20.837Z,25.7
2016-07-10T16:29:41.259Z,25.6
2016-07-10T16:32:47.081Z,25.6
2016-07-10T16:36:02.205Z,25.6
2016-07-10T16:39:17.335Z,25.6
2016-07-10T16:42:30.725Z,25.6
2016-07-10T16:45:48.308Z,25.6
2016-07-10T16:49:03.787Z,25.7
2016-07-10T16:52:19.205Z,25.7
2016-07-10T16:55:34.499Z,25.7
2016-07-10T16:58:49.699Z,25.7
2016-07-10T17:02:04.992Z,25.7
2016-07-10T17:05:19.898Z,25.6
2016-07-10T17:08:34.851Z,25.6
2016-07-10T17:11:49.411Z,25.5
2016-07-10T17:15:04.766Z,25.5
2016-07-10T17:18:19.886Z,25.5
2016-07-10T17:21:35.253Z,25.5
2016-07-10T17:24:50.105Z,25.4
2016-07-10T17:28:05.295Z,25.4
2016-07-10T17:31:20.535Z,25.3
2016-07-10T17:34:33.698Z,25.3
2016-07-10T17:37:51.197Z,25.3
2016-07-10T17:41:06.200Z,25.3
2016-07-10T17:44:21.542Z,25.2
2016-07-10T17:47:41.760Z,25.2
2016-07-10T17:50:47.520Z,25.1
2016-07-10T17:54:02.716Z,25.1
2016-07-10T17:57:17.776Z,25
2016-07-10T18:00:32.852Z,25
2016-07-10T18:03:47.837Z,25
2016-07-10T18:07:02.860Z,25
2016-07-10T18:10:17.784Z,25
2016-07-10T18:13:33.222Z,25
2016-07-10T18:16:48.292Z,25
2016-07-10T18:20:03.666Z,24.9
2016-07-10T18:23:18.734Z,24.9
2016-07-10T18:26:33.770Z,24.9
2016-07-10T18:29:48.677Z,24.9
2016-07-10T18:33:07.645Z,24.9
2016-07-10T18:36:18.382Z,24.8
2016-07-10T18:39:33.283Z,24.7
2016-07-10T18:42:47.889Z,24.7
2016-07-10T18:46:03.475Z,24.7
2016-07-10T18:49:15.517Z,24.7
2016-07-10T18:52:30.811Z,24.6
2016-07-10T18:55:50.487Z,24.6
2016-07-10T18:58:56.285Z,24.5
2016-07-10T19:02:11.114Z,24.4
2016-07-10T19:05:26.067Z,24.4
2016-07-10T19:08:45.430Z,24.3
2016-07-10T19:11:51.193Z,24.3
2016-07-10T19:15:04.364Z,24.3
2016-07-10T19:18:19.414Z,24.2
2016-07-10T19:21:32.864Z,24.1
2016-07-10T19:24:50.033Z,24.1
2016-07-10T19:28:04.861Z,24
2016-07-10T19:31:19.613Z,24
2016-07-10T19:34:34.784Z,23.9
2016-07-10T19:37:49.756Z,23.8
2016-07-10T19:41:04.663Z,23.8
2016-07-10T19:44:19.735Z,23.7
2016-07-10T19:47:32.567Z,23.6
2016-07-10T19:50:49.362Z,23.6
2016-07-10T19:54:04.126Z,23.6
2016-07-10T19:57:19.152Z,23.5
2016-07-10T20:00:34.113Z,23.5
2016-07-10T20:03:48.946Z,23.5
2016-07-10T20:07:03.864Z,23.4
2016-07-10T20:10:18.743Z,23.4
2016-07-10T20:13:33.788Z,23.4
2016-07-10T20:16:48.550Z,23.4
2016-07-10T20:20:03.002Z,23.3
2016-07-10T20:23:16.458Z,23.3
2016-07-10T20:26:33.504Z,23.2
2016-07-10T20:29:48.024Z,23.2
2016-07-10T20:33:03.363Z,23.2
2016-07-10T20:36:16.842Z,23.2
2016-07-10T20:39:31.825Z,23.1
2016-07-10T20:42:46.683Z,23.1
2016-07-10T20:46:00.830Z,23.1
2016-07-10T20:49:15.593Z,23.1
2016-07-10T20:52:30.080Z,23
2016-07-10T20:55:49.927Z,23
2016-07-10T20:58:55.382Z,23
2016-07-10T21:02:10.143Z,22.9
2016-07-10T21:05:24.768Z,22.9
2016-07-10T21:08:45.081Z,22.8
2016-07-10T21:11:50.651Z,22.8
2016-07-10T21:15:04.916Z,22.8
2016-07-10T21:18:19.850Z,22.7
2016-07-10T21:21:34.614Z,22.7
2016-07-10T21:24:49.411Z,22.6
2016-07-10T21:28:03.880Z,22.6
2016-07-10T21:31:18.953Z,22.6
2016-07-10T21:34:33.912Z,22.5
2016-07-10T21:37:48.748Z,22.5
2016-07-10T21:41:03.983Z,22.4
2016-07-10T21:44:18.972Z,22.4
2016-07-10T21:47:33.924Z,22.4
2016-07-10T21:50:48.483Z,22.4
2016-07-10T21:54:03.575Z,22.3
2016-07-10T21:57:17.990Z,22.3
2016-07-10T22:00:32.865Z,22.3
2016-07-10T22:03:51.143Z,22.3
2016-07-10T22:06:56.646Z,22.3
2016-07-10T22:10:11.531Z,22.3
2016-07-10T22:13:26.297Z,22.3
2016-07-10T22:16:45.576Z,22.2
2016-07-10T22:19:50.940Z,22.2
2016-07-10T22:23:05.774Z,22.2
2016-07-10T22:26:20.839Z,22.2
2016-07-10T22:29:36.062Z,22.2
2016-07-10T22:32:51.003Z,22.2
2016-07-10T22:36:06.214Z,22.2
2016-07-10T22:39:21.443Z,22.1
2016-07-10T22:42:36.234Z,22.1
2016-07-10T22:45:51.321Z,22.1
2016-07-10T22:49:06.279Z,22.1
2016-07-10T22:52:21.041Z,22.1
2016-07-10T22:55:35.817Z,22
2016-07-10T22:58:50.321Z,22
2016-07-10T23:02:05.007Z,22
2016-07-10T23:05:19.652Z,22
2016-07-10T23:08:34.479Z,22
2016-07-10T23:11:48.925Z,22
2016-07-10T23:15:03.832Z,21.9
2016-07-10T23:18:17.829Z,21.9
2016-07-10T23:21:32.466Z,21.9
2016-07-10T23:24:47.286Z,21.8
2016-07-10T23:28:01.900Z,21.8
2016-07-10T23:31:16.688Z,21.8
2016-07-10T23:34:31.352Z,21.8
2016-07-10T23:37:51.192Z,21.7
2016-07-10T23:40:56.707Z,21.7
2016-07-10T23:44:11.503Z,21.7
2016-07-10T23:47:26.083Z,21.6
2016-07-10T23:50:45.657Z,21.6
2016-07-10T23:53:51.135Z,21.6
2016-07-10T23:57:05.932Z,21.6
